Palm Springs North, Florida
Current Conditions -  °F | °C
As of 9:53 PM on Friday 21 Nov 2014 (Local Time) from KOPF Reporting Station
Light Rain Light Rain  
Wind Chill: 73°   Ceiling: 2300
Heat Index: 73°   Visibility: 10mi
Dew Point: 67°   Wind: 13mph
Humidity: 81%   Direction: 70°ENE
Pressure: 30.19"   Gusts: 25mph
Location:  25.9357°N, 80.3817°W
Report Text: KOPF 220253Z AUTO 07011G22KT 10SM -RA OVC023 23/19 A3019 RMK AO2 RAB46 SLP223 P0000 60000 T02280194 51009
Loading
Personal Weather Stations






























Interactive Weather Map New forecast layout! Learn more

10-Day Weather Forecast

Advertisements
Track Severe Weather on mobile